createdAt,value
2017-10-26T19:26:25.540Z,1027.75
2017-10-26T19:27:26.185Z,1027.78
2017-10-26T19:28:26.819Z,1027.80
2017-10-26T19:29:27.451Z,1027.84
2017-10-26T19:30:28.086Z,1027.79
2017-10-26T19:31:28.721Z,1027.83
2017-10-26T19:32:29.366Z,1027.85
2017-10-26T19:33:30.004Z,1027.85
2017-10-26T19:34:30.837Z,1027.85
2017-10-26T19:35:31.479Z,1027.80
2017-10-26T19:36:32.169Z,1027.88
2017-10-26T19:37:32.804Z,1027.84
2017-10-26T19:38:33.447Z,1027.87
2017-10-26T19:39:34.129Z,1027.86
2017-10-26T19:40:34.768Z,1027.92
2017-10-26T19:41:35.401Z,1027.90
2017-10-26T19:42:36.187Z,1027.87
2017-10-26T19:43:36.824Z,1027.87
2017-10-26T19:44:37.461Z,1027.92
2017-10-26T19:45:38.094Z,1027.90
2017-10-26T19:46:38.737Z,1027.91
2017-10-26T19:47:39.376Z,1028.03
2017-10-26T19:48:40.057Z,1027.94
2017-10-26T19:49:40.696Z,1027.87
2017-10-26T19:50:41.334Z,1027.94
2017-10-26T19:51:42.166Z,1027.97
2017-10-26T19:52:42.804Z,1027.91
2017-10-26T19:53:43.442Z,1027.97
2017-10-26T19:54:44.074Z,1028.01
2017-10-26T19:55:44.707Z,1027.93
2017-10-26T19:56:45.342Z,1027.94
2017-10-26T19:57:45.977Z,1027.96
2017-10-26T19:58:46.613Z,1028.01
2017-10-26T19:59:47.554Z,1027.93
2017-10-26T20:00:48.193Z,1028.04
2017-10-26T20:01:48.830Z,1027.91
2017-10-26T20:02:49.469Z,1027.98
2017-10-26T20:03:50.096Z,1028.10
2017-10-26T20:04:50.679Z,1027.93
2017-10-26T20:05:51.316Z,1027.98
2017-10-26T20:06:51.952Z,1028.08
2017-10-26T20:07:52.790Z,1028.02
2017-10-26T20:08:53.425Z,1028.08
2017-10-26T20:09:54.059Z,1028.06
2017-10-26T20:10:54.699Z,1027.98
2017-10-26T20:11:55.337Z,1028.05
2017-10-26T20:12:55.976Z,1027.94
2017-10-26T20:13:56.607Z,1028.04
2017-10-26T20:14:57.252Z,1028.10
2017-10-26T20:15:58.033Z,1028.08
2017-10-26T20:16:58.666Z,1028.09
2017-10-26T20:17:59.308Z,1028.11
2017-10-26T20:18:59.943Z,1028.01
2017-10-26T20:20:00.581Z,1028.12
2017-10-26T20:21:01.221Z,1028.10
2017-10-26T20:22:01.848Z,1028.03
2017-10-26T20:23:02.488Z,1028.06
2017-10-26T20:24:03.321Z,1028.12
2017-10-26T20:25:03.956Z,1028.06
2017-10-26T20:26:04.592Z,1028.15
2017-10-26T20:27:05.233Z,1028.10
2017-10-26T20:28:05.865Z,1028.03
2017-10-26T20:29:06.505Z,1028.08
2017-10-26T20:30:07.142Z,1028.05
2017-10-26T20:31:07.776Z,1028.14
2017-10-26T20:32:08.423Z,1028.10
2017-10-26T20:33:09.212Z,1028.12
2017-10-26T20:34:09.843Z,1028.15
2017-10-26T20:35:10.480Z,1028.09
2017-10-26T20:36:11.112Z,1028.19
2017-10-26T20:37:11.751Z,1028.15
2017-10-26T20:38:12.341Z,1028.20
2017-10-26T20:39:12.969Z,1028.24
2017-10-26T20:40:13.606Z,1028.21
2017-10-26T20:41:14.440Z,1028.22
2017-10-26T20:42:15.076Z,1028.28
2017-10-26T20:43:15.715Z,1028.24
2017-10-26T20:44:16.351Z,1028.32
2017-10-26T20:45:16.989Z,1028.27
2017-10-26T20:46:17.622Z,1028.30
2017-10-26T20:47:18.263Z,1028.32
2017-10-26T20:48:18.897Z,1028.27
2017-10-26T20:49:19.684Z,1028.31
2017-10-26T20:50:20.317Z,1028.22
2017-10-26T20:51:20.954Z,1028.32
2017-10-26T20:52:21.593Z,1028.25
2017-10-26T20:53:22.231Z,1028.23
2017-10-26T20:54:22.868Z,1028.31
2017-10-26T20:55:23.506Z,1028.27
2017-10-26T20:56:24.140Z,1028.29
2017-10-26T20:57:24.980Z,1028.30
2017-10-26T20:58:25.573Z,1028.35
2017-10-26T20:59:26.202Z,1028.32
2017-10-26T21:00:26.841Z,1028.30
2017-10-26T21:01:27.478Z,1028.27
2017-10-26T21:02:28.112Z,1028.27
2017-10-26T21:03:28.697Z,1028.28
2017-10-26T21:04:29.332Z,1028.30
2017-10-26T21:05:29.973Z,1028.32
2017-10-26T21:06:30.758Z,1028.35
2017-10-26T21:07:31.392Z,1028.38
2017-10-26T21:08:32.078Z,1028.34
2017-10-26T21:09:32.715Z,1028.34
2017-10-26T21:10:33.347Z,1028.35
2017-10-26T21:11:33.983Z,1028.36
2017-10-26T21:12:34.623Z,1028.37
2017-10-26T21:13:35.256Z,1028.44
2017-10-26T21:14:36.089Z,1028.41
2017-10-26T21:15:36.737Z,1028.36
2017-10-26T21:16:37.373Z,1028.50
2017-10-26T21:17:38.010Z,1028.31
2017-10-26T21:18:38.639Z,1028.35
2017-10-26T21:19:39.278Z,1028.34
2017-10-26T21:20:39.912Z,1028.40
2017-10-26T21:21:40.546Z,1028.39
2017-10-26T21:22:41.337Z,1028.38
2017-10-26T21:23:41.975Z,1028.33
2017-10-26T21:24:42.612Z,1028.38
2017-10-26T21:25:43.244Z,1028.38
2017-10-26T21:26:43.880Z,1028.47
2017-10-26T21:27:44.520Z,1028.39
2017-10-26T21:28:45.155Z,1028.46
2017-10-26T21:29:45.791Z,1028.38
2017-10-26T21:30:46.625Z,1028.35
2017-10-26T21:31:47.261Z,1028.39
2017-10-26T21:32:47.898Z,1028.36
2017-10-26T21:33:48.534Z,1028.47
2017-10-26T21:34:49.170Z,1028.52
2017-10-26T21:35:49.808Z,1028.43
2017-10-26T21:36:50.456Z,1028.46
2017-10-26T21:37:51.090Z,1028.48
2017-10-26T21:38:52.022Z,1028.47
2017-10-26T21:39:52.657Z,1028.59
2017-10-26T21:40:53.297Z,1028.50
2017-10-26T21:41:53.927Z,1028.59
2017-10-26T21:42:54.565Z,1028.57
2017-10-26T21:43:55.206Z,1028.55
2017-10-26T21:44:55.834Z,1028.51
2017-10-26T21:45:56.471Z,1028.56
2017-10-26T21:46:57.105Z,1028.60
2017-10-26T21:47:58.042Z,1028.48
2017-10-26T21:48:58.681Z,1028.46
2017-10-26T21:49:59.318Z,1028.50
2017-10-26T21:50:59.956Z,1028.50
2017-10-26T21:52:00.589Z,1028.48
2017-10-26T21:53:01.224Z,1028.48
2017-10-26T21:54:01.865Z,1028.51
2017-10-26T21:55:02.506Z,1028.39
2017-10-26T21:56:03.394Z,1028.46
2017-10-26T21:57:03.978Z,1028.46
2017-10-26T21:58:04.615Z,1028.47
2017-10-26T21:59:05.252Z,1028.40
2017-10-26T22:00:05.896Z,1028.39
2017-10-26T22:01:06.533Z,1028.44
2017-10-26T22:02:07.170Z,1028.47
2017-10-26T22:03:07.804Z,1028.42
2017-10-26T22:04:08.543Z,1028.39
2017-10-26T22:05:09.174Z,1028.43
2017-10-26T22:06:09.809Z,1028.44
2017-10-26T22:07:10.446Z,1028.46
2017-10-26T22:08:11.082Z,1028.49
2017-10-26T22:09:11.719Z,1028.43
2017-10-26T22:10:12.356Z,1028.49
2017-10-26T22:11:12.995Z,1028.48
2017-10-26T22:12:13.928Z,1028.52
2017-10-26T22:13:14.568Z,1028.52
2017-10-26T22:14:15.200Z,1028.52
2017-10-26T22:15:15.841Z,1028.54
2017-10-26T22:16:16.473Z,1028.50
2017-10-26T22:17:17.112Z,1028.50
2017-10-26T22:18:17.750Z,1028.55
2017-10-26T22:19:18.387Z,1028.51
2017-10-26T22:20:18.975Z,1028.48
2017-10-26T22:21:19.824Z,1028.49
2017-10-26T22:22:20.467Z,1028.47
2017-10-26T22:23:21.109Z,1028.53
2017-10-26T22:24:21.893Z,1028.54
2017-10-26T22:25:22.476Z,1028.51
2017-10-26T22:26:23.111Z,1028.52
2017-10-26T22:27:23.754Z,1028.45
2017-10-26T22:28:24.392Z,1028.50
2017-10-26T22:29:25.078Z,1028.49
2017-10-26T22:30:25.781Z,1028.47
2017-10-26T22:31:26.403Z,1028.52
2017-10-26T22:32:27.497Z,1028.42
2017-10-26T22:33:28.225Z,1028.49
2017-10-26T22:34:28.996Z,1028.44
2017-10-26T22:35:29.636Z,1028.48
2017-10-26T22:36:30.270Z,1028.45
2017-10-26T22:37:31.060Z,1028.42
2017-10-26T22:38:31.692Z,1028.37
2017-10-26T22:39:32.326Z,1028.45
2017-10-26T22:40:32.973Z,1028.32
2017-10-26T22:41:33.807Z,1028.44
2017-10-26T22:42:34.485Z,1028.34
2017-10-26T22:43:35.135Z,1028.38
2017-10-26T22:44:35.768Z,1028.45
2017-10-26T22:45:36.412Z,1028.33
2017-10-26T22:46:37.117Z,1028.46
2017-10-26T22:47:37.933Z,1028.39
2017-10-26T22:48:38.571Z,1028.44
2017-10-26T22:49:39.209Z,1028.40
2017-10-26T22:50:40.048Z,1028.39
2017-10-26T22:51:40.688Z,1028.38
2017-10-26T22:52:41.373Z,1028.36
2017-10-26T22:53:42.020Z,1028.38
2017-10-26T22:54:42.802Z,1028.41
2017-10-26T22:55:43.434Z,1028.35
2017-10-26T22:56:44.068Z,1028.38
2017-10-26T22:57:44.707Z,1028.34
2017-10-26T22:58:45.396Z,1028.35
2017-10-26T22:59:46.027Z,1028.24
2017-10-26T23:00:46.673Z,1028.36
2017-10-26T23:01:47.259Z,1028.32
2017-10-26T23:02:48.296Z,1028.40
2017-10-26T23:03:48.932Z,1028.37
2017-10-26T23:04:49.569Z,1028.31
2017-10-26T23:05:50.217Z,1028.30
2017-10-26T23:06:50.848Z,1028.32
2017-10-26T23:07:51.483Z,1028.25
2017-10-26T23:08:52.120Z,1028.27
2017-10-26T23:09:52.758Z,1028.20
2017-10-26T23:10:53.539Z,1028.30
2017-10-26T23:11:54.173Z,1028.27
2017-10-26T23:12:54.807Z,1028.20
2017-10-26T23:13:55.443Z,1028.28
2017-10-26T23:14:56.076Z,1028.27
2017-10-26T23:15:56.711Z,1028.23
2017-10-26T23:16:57.351Z,1028.19
2017-10-26T23:17:57.989Z,1028.24
2017-10-26T23:18:58.820Z,1028.23
2017-10-26T23:19:59.454Z,1028.16
2017-10-26T23:21:00.094Z,1028.21
2017-10-26T23:22:00.722Z,1028.11
2017-10-26T23:23:01.368Z,1028.20
2017-10-26T23:24:02.002Z,1028.18
2017-10-26T23:25:02.635Z,1028.15
2017-10-26T23:26:03.279Z,1028.17
2017-10-26T23:27:03.914Z,1028.12
2017-10-26T23:28:04.699Z,1028.18
2017-10-26T23:29:05.332Z,1028.16
2017-10-26T23:30:05.966Z,1028.18
2017-10-26T23:31:06.604Z,1028.14
2017-10-26T23:32:07.249Z,1028.16
2017-10-26T23:33:07.882Z,1028.17
2017-10-26T23:34:08.512Z,1028.23
2017-10-26T23:35:09.160Z,1028.15
2017-10-26T23:36:10.045Z,1028.18
2017-10-26T23:37:10.676Z,1028.13
2017-10-26T23:38:11.367Z,1028.21
2017-10-26T23:39:12.007Z,1028.16
2017-10-26T23:40:12.635Z,1028.16
2017-10-26T23:41:13.270Z,1028.19
2017-10-26T23:42:13.908Z,1028.24
2017-10-26T23:43:14.541Z,1028.13
2017-10-26T23:44:15.531Z,1028.17
2017-10-26T23:45:16.165Z,1028.14
2017-10-26T23:46:16.801Z,1028.13
2017-10-26T23:47:17.438Z,1028.10
2017-10-26T23:48:18.071Z,1028.11
2017-10-26T23:49:18.705Z,1028.12
2017-10-26T23:50:19.341Z,1028.15
2017-10-26T23:51:19.981Z,1028.12
2017-10-26T23:52:21.013Z,1028.11
2017-10-26T23:53:21.645Z,1028.06
2017-10-26T23:54:22.283Z,1028.10
2017-10-26T23:55:22.870Z,1028.05
2017-10-26T23:56:23.502Z,1028.04
2017-10-26T23:57:24.139Z,1028.09
2017-10-26T23:58:24.777Z,1028.13
2017-10-26T23:59:25.418Z,1028.05
